WCOM7: Spring River, Waco, MO

                                SHEF ID:       WCOM7     Spring R A - Waco MO
STATION TYPE: Stream Gauge
Regulating: Stage = 19.00, Flow = 17743

PRECIP STAGE RIV-FLOW BAT-LOAD
in ft cfs volt
Ccp-Rev Ccp-Rev Ccp-Rev Ccp-Rev
(America/Chicago)
03/07 00:00 0.00 3.44 1234 12.58
03/07 01:00 0.00 3.73 1431 12.57
03/07 02:00 0.00 3.95 1584 12.55
03/07 03:00 0.00 4.25 1796 12.54
03/07 04:00 0.00 4.73 2149 12.53
03/07 05:00 0.00 5.57 2803 12.52
03/07 06:00 0.00 6.59 3680 12.50
03/07 07:00 0.00 7.61 4642 12.48
03/07 08:00 0.00 8.49 5501 12.48
03/07 09:00 0.00 9.26 6273 12.59
03/07 10:00 0.00 9.87 6899 12.80
03/07 11:00 0.00 10.45 7500 13.22
03/07 12:00 0.00 10.80 7870 13.41
03/07 13:00 0.00 10.96 8040 13.30
03/07 14:00 0.00 11.33 8438 13.18
03/07 15:00 0.00 11.55 8678 13.13
03/07 16:00 0.00 11.57 8700 13.07
03/07 17:00 0.00 11.59 8721 13.03
03/07 18:00 0.00 11.69 8831 12.93
03/07 19:00 0.00 11.59 8721 12.76
03/07 20:00 0.00 11.35 8460 12.66
03/07 21:00 0.00 11.31 8417 12.62
03/07 22:00 0.00 11.10 8190 12.60
03/07 23:00 0.00 10.89 7966 12.58
Data processed at Sun 08Mar2026 05:37 GMT

NOTICE: If you are parsing this page

Please convert to using our Data API. Starting early 2026 we will be migrating to: https://water.usace.army.mil with modern pages rendered in JavaScript. When this migration completes you will no longer be able to scrape this page! CWMSDataAPI (CDA)

Timeseries IDs (TSIDs)

TSIDs used from left to right in the data table
WACO.Precip-Inc.Total.1Hour.1Hour.Ccp-Rev
WACO.Stage.Inst.1Hour.0.Ccp-Rev
WACO.Flow.Inst.1Hour.0.Ccp-Rev
WACO.Volt-Battery Load.Inst.1Hour.0.Ccp-Rev

                            

All information presented herein is the property of the government of the United States of America and may be revised or deleted at any time without prior notice. Dissemination of this information without the expressed written consent of the Public Affairs Office, Tulsa District U.S. Army Corps of Engineers is strictly prohibited. These data are gathered electronically and, as presented, have NOT undergone any form of quality control. These data are NOT guaranteed to be valid or correct.